Time;durP1;ratioP1;P1;durP2;ratioP2;P2;SDS_P1;SDS_P2;PMS_P1;PMS_P2;Temp;Humidity;BMP_temperature;BMP_pressure;BME280_temperature;BME280_humidity;BME280_pressure;Samples;Min_cycle;Max_cycle;Signal;HPM_P1;HPM_P2
2021/04/17 00:01:57;;;;;;;10.65;7.68;;;;;;;;;;4896296;29;20024;-82
2021/04/17 00:04:42;;;;;;;10.65;7.32;;;;;;;;;;4884645;29;20479;-82
2021/04/17 00:07:28;;;;;;;13.13;7.38;;;;;;;;;;4894962;29;20032;-82
2021/04/17 00:10:13;;;;;;;10.18;7.40;;;;;;;;;;4895372;29;20032;-82
2021/04/17 00:12:58;;;;;;;10.13;7.30;;;;;;;;;;4896601;29;20055;-83
2021/04/17 00:15:44;;;;;;;12.70;7.97;;;;;;;;;;4896158;29;20483;-82
2021/04/17 00:18:29;;;;;;;11.35;7.63;;;;;;;;;;4902973;29;20028;-84
2021/04/17 00:21:18;;;;;;;10.85;7.75;;;;;;;;;;4892289;29;20021;-83
2021/04/17 00:24:06;;;;;;;9.05;6.93;;;;;;;;;;4888857;29;20051;-83
2021/04/17 00:26:51;;;;;;;9.43;6.78;;;;;;;;;;4894830;29;20036;-82
2021/04/17 00:29:37;;;;;;;10.73;7.05;;;;;;;;;;4897067;29;20150;-82
2021/04/17 00:32:22;;;;;;;11.07;6.43;;;;;;;;;;4886663;29;20088;-82
2021/04/17 00:35:07;;;;;;;10.60;6.90;;;;;;;;;;4896332;29;20428;-82
2021/04/17 00:37:53;;;;;;;13.40;8.38;;;;;;;;;;4893966;29;20050;-82
2021/04/17 00:40:38;;;;;;;12.80;7.95;;;;;;;;;;4897907;29;20067;-82
2021/04/17 00:43:23;;;;;;;14.30;8.38;;;;;;;;;;4894259;29;20031;-82
2021/04/17 00:46:09;;;;;;;12.07;7.80;;;;;;;;;;4890673;29;20115;-82
2021/04/17 00:48:54;;;;;;;12.05;7.50;;;;;;;;;;4894284;29;20024;-82
2021/04/17 00:51:40;;;;;;;10.18;7.65;;;;;;;;;;4892477;29;20035;-82
2021/04/17 00:54:25;;;;;;;12.02;8.20;;;;;;;;;;4894017;29;20497;-82
2021/04/17 00:57:10;;;;;;;10.60;7.95;;;;;;;;;;4895849;29;20055;-82
2021/04/17 00:59:55;;;;;;;14.27;8.13;;;;;;;;;;4888318;29;20546;-82
2021/04/17 01:02:46;;;;;;;10.65;7.63;;;;;;;;;;4894709;29;20032;-82
2021/04/17 01:05:32;;;;;;;12.35;7.95;;;;;;;;;;4897275;29;20024;-82
2021/04/17 01:08:20;;;;;;;11.30;7.88;;;;;;;;;;4893176;29;20555;-82
2021/04/17 01:11:07;;;;;;;15.73;8.52;;;;;;;;;;4896322;29;20052;-82
2021/04/17 01:13:53;;;;;;;12.82;7.32;;;;;;;;;;4894219;29;20031;-82
2021/04/17 01:16:39;;;;;;;11.88;8.23;;;;;;;;;;4896863;29;20068;-82
2021/04/17 01:19:31;;;;;;;12.10;8.18;;;;;;;;;;4894369;29;20086;-83
2021/04/17 01:22:18;;;;;;;10.52;7.55;;;;;;;;;;4882526;29;20044;-82
2021/04/17 01:25:12;;;;;;;11.13;8.32;;;;;;;;;;4895120;29;20231;-82
2021/04/17 01:27:58;;;;;;;11.85;8.13;;;;;;;;;;4897160;29;20145;-82
2021/04/17 01:30:44;;;;;;;13.20;8.38;;;;;;;;;;4898068;29;20024;-82
2021/04/17 01:33:32;;;;;;;11.88;8.05;;;;;;;;;;4899839;29;20046;-82
2021/04/17 01:36:18;;;;;;;11.23;8.00;;;;;;;;;;4898224;29;20107;-83
2021/04/17 01:39:07;;;;;;;10.48;7.50;;;;;;;;;;4893272;29;20032;-83
2021/04/17 01:41:54;;;;;;;12.95;8.63;;;;;;;;;;4902451;29;20040;-83
2021/04/17 01:44:41;;;;;;;13.95;7.95;;;;;;;;;;4903516;29;20553;-82
2021/04/17 01:47:26;;;;;;;10.75;7.30;;;;;;;;;;4898700;29;20038;-82
2021/04/17 01:50:12;;;;;;;11.23;6.88;;;;;;;;;;4895843;29;20153;-82
2021/04/17 01:52:58;;;;;;;11.98;8.48;;;;;;;;;;4898792;29;20408;-82
2021/04/17 01:55:45;;;;;;;11.05;7.43;;;;;;;;;;4893345;29;20464;-82
2021/04/17 01:58:31;;;;;;;14.65;8.68;;;;;;;;;;4913522;29;20154;-82
2021/04/17 02:01:17;;;;;;;13.23;8.95;;;;;;;;;;4896855;29;20032;-82
2021/04/17 02:04:02;;;;;;;12.57;8.23;;;;;;;;;;4889473;29;20030;-82
2021/04/17 02:06:48;;;;;;;10.93;7.50;;;;;;;;;;4894756;29;20391;-82
2021/04/17 02:09:33;;;;;;;12.88;8.60;;;;;;;;;;4893377;29;20035;-82
2021/04/17 02:12:18;;;;;;;14.38;10.70;;;;;;;;;;4891424;29;20546;-82
2021/04/17 02:15:04;;;;;;;11.93;8.43;;;;;;;;;;4904634;29;20020;-82
2021/04/17 02:17:51;;;;;;;17.02;10.27;;;;;;;;;;4911176;29;20042;-82
2021/04/17 02:20:40;;;;;;;13.65;8.85;;;;;;;;;;4893056;29;20516;-82
2021/04/17 02:23:25;;;;;;;13.27;9.65;;;;;;;;;;4899148;29;20027;-82
2021/04/17 02:26:10;;;;;;;12.65;9.05;;;;;;;;;;4896110;29;20138;-82
2021/04/17 02:28:56;;;;;;;14.77;7.90;;;;;;;;;;4900076;29;20028;-82
2021/04/17 02:31:41;;;;;;;12.48;7.95;;;;;;;;;;4893614;29;20046;-82
2021/04/17 02:34:26;;;;;;;12.55;8.40;;;;;;;;;;4893817;29;20083;-82
2021/04/17 02:37:12;;;;;;;12.95;9.00;;;;;;;;;;4893936;29;20357;-83
2021/04/17 02:39:57;;;;;;;12.77;8.75;;;;;;;;;;4890515;29;20115;-82
2021/04/17 02:42:42;;;;;;;11.95;8.55;;;;;;;;;;4895998;29;20024;-83
2021/04/17 02:45:28;;;;;;;12.27;8.70;;;;;;;;;;4894670;29;20028;-82
2021/04/17 02:48:13;;;;;;;12.30;9.13;;;;;;;;;;4896993;29;20479;-82
2021/04/17 02:50:58;;;;;;;15.90;9.00;;;;;;;;;;4899770;29;20040;-81
2021/04/17 02:53:44;;;;;;;11.52;8.52;;;;;;;;;;4894361;29;20034;-82
2021/04/17 02:56:29;;;;;;;14.15;9.77;;;;;;;;;;4893771;29;20033;-82
2021/04/17 02:59:14;;;;;;;13.07;9.95;;;;;;;;;;4895906;29;20471;-82
2021/04/17 03:01:59;;;;;;;15.60;9.95;;;;;;;;;;4894982;29;20426;-81
2021/04/17 03:04:45;;;;;;;16.17;10.15;;;;;;;;;;4895161;29;20017;-82
2021/04/17 03:07:30;;;;;;;13.70;9.63;;;;;;;;;;4891504;29;20028;-82
2021/04/17 03:10:16;;;;;;;15.25;10.13;;;;;;;;;;4895567;29;20044;-81
2021/04/17 03:13:02;;;;;;;14.05;8.88;;;;;;;;;;4888830;29;20046;-81
2021/04/17 03:15:47;;;;;;;14.05;9.60;;;;;;;;;;4898143;29;20091;-81
2021/04/17 03:18:32;;;;;;;12.52;8.82;;;;;;;;;;4890740;29;20097;-81
2021/04/17 03:21:17;;;;;;;13.25;9.55;;;;;;;;;;4893914;29;20107;-81
2021/04/17 03:24:03;;;;;;;13.10;9.10;;;;;;;;;;4889179;29;20024;-81
2021/04/17 03:26:48;;;;;;;15.27;9.60;;;;;;;;;;4896316;29;20016;-81
2021/04/17 03:29:33;;;;;;;13.25;8.80;;;;;;;;;;4894651;29;20407;-81
2021/04/17 03:32:18;;;;;;;13.82;9.98;;;;;;;;;;4892140;29;20050;-81
2021/04/17 03:35:05;;;;;;;13.05;9.55;;;;;;;;;;4887320;29;20024;-81
2021/04/17 03:37:50;;;;;;;14.68;10.07;;;;;;;;;;4897691;29;20046;-82
2021/04/17 03:40:36;;;;;;;14.15;10.35;;;;;;;;;;4896031;29;20043;-81
2021/04/17 03:43:21;;;;;;;16.65;11.50;;;;;;;;;;4897709;29;20027;-82
2021/04/17 03:46:06;;;;;;;16.00;11.30;;;;;;;;;;4892372;29;20035;-82
2021/04/17 03:48:51;;;;;;;13.60;9.50;;;;;;;;;;4889533;29;20368;-81
2021/04/17 03:51:36;;;;;;;15.40;9.77;;;;;;;;;;4897592;29;20023;-82
2021/04/17 03:54:22;;;;;;;15.82;10.68;;;;;;;;;;4894154;29;20030;-82
2021/04/17 03:57:07;;;;;;;16.48;10.50;;;;;;;;;;4898689;29;20027;-82
2021/04/17 03:59:53;;;;;;;14.10;9.93;;;;;;;;;;4889265;29;20036;-81
2021/04/17 04:02:38;;;;;;;14.27;10.13;;;;;;;;;;4894838;29;20035;-81
2021/04/17 04:05:23;;;;;;;12.32;8.68;;;;;;;;;;4892473;29;20028;-81
2021/04/17 04:08:08;;;;;;;15.20;10.27;;;;;;;;;;4910953;29;20103;-82
2021/04/17 04:10:54;;;;;;;13.13;9.30;;;;;;;;;;4896657;29;20578;-81
2021/04/17 04:13:39;;;;;;;16.15;11.32;;;;;;;;;;4896828;29;20084;-81
2021/04/17 04:16:24;;;;;;;14.70;10.50;;;;;;;;;;4893209;29;20055;-82
2021/04/17 04:19:09;;;;;;;16.20;12.23;;;;;;;;;;4896342;29;20127;-82
2021/04/17 04:21:55;;;;;;;15.88;12.50;;;;;;;;;;4887979;29;20479;-82
2021/04/17 04:24:40;;;;;;;16.50;11.73;;;;;;;;;;4894363;29;20035;-81
2021/04/17 04:27:25;;;;;;;15.30;11.40;;;;;;;;;;4892156;29;20032;-82
2021/04/17 04:30:11;;;;;;;16.83;12.38;;;;;;;;;;4897536;29;20025;-81
2021/04/17 04:32:56;;;;;;;14.52;11.05;;;;;;;;;;4907879;29;20092;-81
2021/04/17 04:35:41;;;;;;;19.83;12.43;;;;;;;;;;4897097;29;20028;-81
2021/04/17 04:38:26;;;;;;;19.50;12.15;;;;;;;;;;4896242;29;20020;-81
2021/04/17 04:41:12;;;;;;;17.60;11.02;;;;;;;;;;4890544;29;20020;-81
2021/04/17 04:43:57;;;;;;;15.80;10.48;;;;;;;;;;4896678;29;20036;-80
2021/04/17 04:46:42;;;;;;;16.08;12.35;;;;;;;;;;4908043;29;20027;-79
2021/04/17 04:49:28;;;;;;;18.30;11.95;;;;;;;;;;4897790;29;20020;-79
2021/04/17 04:52:13;;;;;;;14.23;10.25;;;;;;;;;;4887701;29;20052;-80
2021/04/17 04:54:58;;;;;;;21.15;14.10;;;;;;;;;;4896441;29;20059;-79
2021/04/17 04:57:43;;;;;;;20.65;13.05;;;;;;;;;;4895002;29;20034;-79
2021/04/17 05:00:29;;;;;;;17.80;13.40;;;;;;;;;;4895183;29;20027;-79
2021/04/17 05:03:14;;;;;;;20.85;13.85;;;;;;;;;;4906886;29;20028;-78
2021/04/17 05:05:59;;;;;;;17.08;13.57;;;;;;;;;;4902321;29;20028;-80
2021/04/17 05:08:44;;;;;;;18.83;13.98;;;;;;;;;;4897391;29;20047;-80
2021/04/17 05:11:31;;;;;;;18.63;13.82;;;;;;;;;;4897587;29;20160;-80
2021/04/17 05:14:16;;;;;;;20.90;15.00;;;;;;;;;;4886937;29;20394;-81
2021/04/17 05:17:01;;;;;;;21.10;13.90;;;;;;;;;;4891809;29;20960;-80
2021/04/17 05:19:47;;;;;;;17.73;12.48;;;;;;;;;;4907471;29;20136;-81
2021/04/17 05:22:32;;;;;;;16.23;12.63;;;;;;;;;;4888325;29;20036;-81
2021/04/17 05:25:17;;;;;;;18.83;12.48;;;;;;;;;;4890657;29;20032;-81
2021/04/17 05:28:03;;;;;;;19.70;13.90;;;;;;;;;;4887726;29;20051;-80
2021/04/17 05:30:48;;;;;;;19.33;14.05;;;;;;;;;;4891068;29;20028;-80
2021/04/17 05:33:34;;;;;;;21.50;16.42;;;;;;;;;;4874827;29;20356;-80
2021/04/17 05:36:19;;;;;;;17.75;13.27;;;;;;;;;;4892445;29;20041;-80
2021/04/17 05:39:04;;;;;;;18.65;13.18;;;;;;;;;;4888758;29;20070;-80
2021/04/17 05:41:50;;;;;;;17.73;13.88;;;;;;;;;;4901494;29;20160;-80
2021/04/17 05:44:35;;;;;;;17.48;13.52;;;;;;;;;;4878634;29;20025;-80
2021/04/17 05:47:20;;;;;;;18.70;13.48;;;;;;;;;;4893242;29;20055;-81
2021/04/17 05:50:34;;;;;;;;;;;;;;;;;;;;;
2021/04/17 05:53:19;;;;;;;19.15;14.05;;;;;;;;;;4885764;29;20201;-79
2021/04/17 05:56:05;;;;;;;20.67;14.30;;;;;;;;;;4885926;29;21180;-82
2021/04/17 05:58:50;;;;;;;20.17;14.40;;;;;;;;;;4888857;29;20035;-80
2021/04/17 06:01:35;;;;;;;18.90;14.80;;;;;;;;;;4892474;29;20036;-80
2021/04/17 06:04:20;;;;;;;18.10;14.02;;;;;;;;;;4885384;29;20047;-79
2021/04/17 06:07:06;;;;;;;19.08;14.10;;;;;;;;;;4883791;29;20020;-79
2021/04/17 06:09:51;;;;;;;17.98;14.13;;;;;;;;;;4899176;29;20035;-80
2021/04/17 06:12:36;;;;;;;17.40;13.68;;;;;;;;;;4887519;29;20570;-79
2021/04/17 06:15:22;;;;;;;22.02;14.48;;;;;;;;;;4891192;29;20603;-78
2021/04/17 06:18:07;;;;;;;17.25;13.50;;;;;;;;;;4890764;29;20020;-79
2021/04/17 06:20:52;;;;;;;18.77;13.65;;;;;;;;;;4889000;29;20023;-80
2021/04/17 06:23:37;;;;;;;18.98;14.40;;;;;;;;;;4907769;29;20030;-79
2021/04/17 06:26:23;;;;;;;129.32;87.03;;;;;;;;;;4887826;29;20103;-80
2021/04/17 06:29:08;;;;;;;40.50;31.77;;;;;;;;;;4878865;29;20021;-80
2021/04/17 06:31:53;;;;;;;20.33;15.60;;;;;;;;;;4887664;29;20491;-78
2021/04/17 06:34:38;;;;;;;18.90;14.35;;;;;;;;;;4882900;29;20026;-79
2021/04/17 06:37:24;;;;;;;18.85;13.95;;;;;;;;;;4886880;29;20051;-79
2021/04/17 06:40:09;;;;;;;17.83;13.50;;;;;;;;;;4901847;29;20488;-79
2021/04/17 06:42:57;;;;;;;17.83;14.38;;;;;;;;;;4888961;29;20031;-79
2021/04/17 06:45:43;;;;;;;19.15;14.88;;;;;;;;;;4883547;29;20079;-79
2021/04/17 06:48:29;;;;;;;19.05;14.88;;;;;;;;;;4895760;29;20027;-79
2021/04/17 06:51:15;;;;;;;17.55;13.98;;;;;;;;;;4885913;29;20483;-79
2021/04/17 06:54:01;;;;;;;18.73;14.93;;;;;;;;;;4889789;29;20087;-78
2021/04/17 06:56:49;;;;;;;45.10;33.90;;;;;;;;;;4883726;29;20020;-79
2021/04/17 06:59:35;;;;;;;33.28;25.27;;;;;;;;;;4882667;29;20027;-78
2021/04/17 07:02:20;;;;;;;17.42;14.88;;;;;;;;;;4905945;29;20028;-79
2021/04/17 07:05:06;;;;;;;19.33;15.65;;;;;;;;;;4886305;29;20028;-79
2021/04/17 07:07:51;;;;;;;18.48;14.55;;;;;;;;;;4887366;29;20024;-79
2021/04/17 07:10:37;;;;;;;21.05;13.27;;;;;;;;;;4888468;29;20035;-80
2021/04/17 07:13:22;;;;;;;20.65;15.48;;;;;;;;;;4889286;29;20131;-80
2021/04/17 07:16:08;;;;;;;20.00;13.73;;;;;;;;;;4890052;29;20023;-79
2021/04/17 07:18:53;;;;;;;23.90;14.48;;;;;;;;;;4887338;29;20023;-80
2021/04/17 07:21:39;;;;;;;17.80;14.07;;;;;;;;;;4887499;29;20111;-78
2021/04/17 07:24:25;;;;;;;20.90;15.60;;;;;;;;;;4890651;29;20034;-79
2021/04/17 07:27:28;;;;;;;19.52;15.25;;;;;;;;;;4891444;29;20491;-79
2021/04/17 07:30:16;;;;;;;19.63;15.70;;;;;;;;;;4889599;29;20434;-79
2021/04/17 07:33:16;;;;;;;26.15;20.50;;;;;;;;;;4892381;29;20032;-80
2021/04/17 07:36:01;;;;;;;18.17;14.85;;;;;;;;;;4889553;29;20035;-80
2021/04/17 07:38:46;;;;;;;17.27;13.20;;;;;;;;;;4891828;29;20035;-80
2021/04/17 07:41:37;;;;;;;15.75;13.18;;;;;;;;;;4889706;29;20031;-81
2021/04/17 07:44:28;;;;;;;18.50;14.07;;;;;;;;;;4882998;29;20020;-80
2021/04/17 07:47:30;;;;;;;16.27;11.63;;;;;;;;;;4898323;29;20032;-79
2021/04/17 07:50:17;;;;;;;17.52;13.45;;;;;;;;;;4880124;29;20036;-79
2021/04/17 07:53:22;;;;;;;14.77;12.05;;;;;;;;;;4892027;29;20049;-79
2021/04/17 07:56:23;;;;;;;15.48;11.60;;;;;;;;;;4890092;29;20028;-80
2021/04/17 07:59:08;;;;;;;15.45;11.48;;;;;;;;;;4887453;29;20067;-80
2021/04/17 08:01:53;;;;;;;17.10;12.07;;;;;;;;;;4891614;29;20503;-80
2021/04/17 08:04:39;;;;;;;16.58;11.98;;;;;;;;;;4887707;29;20034;-80
2021/04/17 08:07:24;;;;;;;17.75;11.45;;;;;;;;;;4893104;29;20578;-79
2021/04/17 08:10:10;;;;;;;15.10;11.60;;;;;;;;;;4885268;29;20119;-79
2021/04/17 08:12:59;;;;;;;17.17;11.52;;;;;;;;;;4900778;29;20044;-79
2021/04/17 08:15:44;;;;;;;14.45;11.23;;;;;;;;;;4900289;29;20028;-79
2021/04/17 08:18:30;;;;;;;13.85;10.57;;;;;;;;;;4892978;29;20020;-79
2021/04/17 08:21:16;;;;;;;13.07;9.27;;;;;;;;;;4879312;29;20387;-80
2021/04/17 08:24:02;;;;;;;12.35;8.05;;;;;;;;;;4898557;29;20031;-79
2021/04/17 08:26:50;;;;;;;11.38;8.38;;;;;;;;;;4887414;29;20087;-80
2021/04/17 08:29:44;;;;;;;12.18;8.13;;;;;;;;;;4888728;29;20376;-81
2021/04/17 08:32:34;;;;;;;11.73;8.75;;;;;;;;;;4889335;29;20103;-80
2021/04/17 08:35:19;;;;;;;15.63;10.10;;;;;;;;;;4887458;29;20035;-80
2021/04/17 08:38:08;;;;;;;24.63;17.95;;;;;;;;;;4881059;29;20087;-80
2021/04/17 08:40:53;;;;;;;11.38;8.07;;;;;;;;;;4887888;29;20019;-80
2021/04/17 08:43:41;;;;;;;12.68;8.82;;;;;;;;;;4901872;29;20063;-81
2021/04/17 08:46:39;;;;;;;11.90;7.32;;;;;;;;;;4888473;29;20036;-81
2021/04/17 08:49:26;;;;;;;11.65;7.72;;;;;;;;;;4882841;29;20028;-81
2021/04/17 08:52:20;;;;;;;12.68;8.35;;;;;;;;;;4884450;29;20027;-81
2021/04/17 08:55:05;;;;;;;10.02;6.88;;;;;;;;;;4886514;29;20055;-84
2021/04/17 08:58:09;;;;;;;8.85;6.82;;;;;;;;;;4884101;29;20424;-83
2021/04/17 09:00:54;;;;;;;12.23;7.10;;;;;;;;;;4887769;29;20452;-81
2021/04/17 09:03:46;;;;;;;14.32;8.77;;;;;;;;;;4877520;29;20442;-81
2021/04/17 09:06:31;;;;;;;25.33;17.45;;;;;;;;;;4882916;29;20942;-82
2021/04/17 09:09:20;;;;;;;11.20;8.23;;;;;;;;;;4879906;29;20128;-81
2021/04/17 09:12:05;;;;;;;13.25;8.77;;;;;;;;;;4875162;29;20096;-82
2021/04/17 09:14:51;;;;;;;12.77;8.82;;;;;;;;;;4869687;29;20561;-80
2021/04/17 09:17:36;;;;;;;13.82;8.10;;;;;;;;;;4868122;29;20070;-81
2021/04/17 09:20:34;;;;;;;14.40;7.57;;;;;;;;;;4872222;29;20137;-81
2021/04/17 09:23:35;;;;;;;12.68;8.70;;;;;;;;;;4854012;29;20595;-83
2021/04/17 09:26:29;;;;;;;11.70;7.03;;;;;;;;;;4871900;29;20032;-81
2021/04/17 09:29:17;;;;;;;10.73;7.20;;;;;;;;;;4878076;29;20396;-83
2021/04/17 09:32:04;;;;;;;12.82;7.55;;;;;;;;;;4863081;29;20308;-81
2021/04/17 09:34:50;;;;;;;10.68;7.13;;;;;;;;;;4868025;29;20028;-83
2021/04/17 09:37:35;;;;;;;11.40;8.20;;;;;;;;;;4868404;29;20028;-82
2021/04/17 09:40:27;;;;;;;9.85;7.63;;;;;;;;;;4872140;29;20396;-80
2021/04/17 09:43:26;;;;;;;13.27;7.93;;;;;;;;;;4869501;29;20525;-81
2021/04/17 09:46:16;;;;;;;15.52;7.40;;;;;;;;;;4878967;29;20758;-75
2021/04/17 09:49:02;;;;;;;11.55;7.82;;;;;;;;;;4865487;29;20033;-76
2021/04/17 09:51:55;;;;;;;10.32;8.02;;;;;;;;;;4868351;29;20362;-76
2021/04/17 09:54:40;;;;;;;11.45;7.93;;;;;;;;;;4869814;29;20199;-73
2021/04/17 09:57:26;;;;;;;12.45;7.88;;;;;;;;;;4870841;29;20052;-75
2021/04/17 10:00:15;;;;;;;7.60;5.10;;;;;;;;;;4867337;29;20048;-75
2021/04/17 10:03:03;;;;;;;20.17;15.60;;;;;;;;;;4875178;29;20033;-74
2021/04/17 10:05:48;;;;;;;10.45;6.85;;;;;;;;;;4863089;29;20571;-74
2021/04/17 10:08:35;;;;;;;8.38;5.28;;;;;;;;;;4869046;29;20044;-74
2021/04/17 10:11:24;;;;;;;12.55;7.38;;;;;;;;;;4877741;29;20048;-73
2021/04/17 10:14:11;;;;;;;8.20;6.68;;;;;;;;;;4888397;29;20028;-73
2021/04/17 10:16:56;;;;;;;12.00;5.85;;;;;;;;;;4884160;29;20059;-73
2021/04/17 10:19:42;;;;;;;11.93;7.43;;;;;;;;;;4887425;29;20104;-73
2021/04/17 10:22:27;;;;;;;10.00;6.18;;;;;;;;;;4886986;29;20017;-75
2021/04/17 10:28:39;;;;;;;9.82;6.15;;;;;;;;;;4892515;29;20027;-74
2021/04/17 10:31:24;;;;;;;11.15;7.05;;;;;;;;;;4890433;29;20118;-74
2021/04/17 10:34:10;;;;;;;8.93;5.95;;;;;;;;;;4887775;29;20753;-74
2021/04/17 10:36:56;;;;;;;9.23;6.15;;;;;;;;;;4882856;29;20043;-74
2021/04/17 10:39:58;;;;;;;10.30;6.25;;;;;;;;;;4882305;29;20074;-77
2021/04/17 10:42:54;;;;;;;10.48;7.55;;;;;;;;;;4890570;29;20038;-77
2021/04/17 10:45:40;;;;;;;15.18;11.43;;;;;;;;;;4879049;29;20036;-79
2021/04/17 10:48:26;;;;;;;17.50;11.80;;;;;;;;;;4893421;29;20020;-79
2021/04/17 10:51:13;;;;;;;10.18;6.43;;;;;;;;;;4893181;29;20486;-85
2021/04/17 10:54:01;;;;;;;8.02;5.03;;;;;;;;;;4892416;29;20020;-82
2021/04/17 10:57:06;;;;;;;11.43;6.15;;;;;;;;;;4889932;29;20047;-82
2021/04/17 10:59:59;;;;;;;8.60;5.20;;;;;;;;;;4884637;29;20028;-81
2021/04/17 11:02:49;;;;;;;8.35;5.82;;;;;;;;;;4890953;29;20114;-83
2021/04/17 11:05:34;;;;;;;8.15;5.75;;;;;;;;;;4890900;29;20443;-83
2021/04/17 11:08:20;;;;;;;9.65;5.18;;;;;;;;;;4887412;29;20028;-82
2021/04/17 11:11:10;;;;;;;8.85;5.60;;;;;;;;;;4881507;29;20044;-83
2021/04/17 11:14:00;;;;;;;20.55;13.77;;;;;;;;;;4890513;29;20044;-83
2021/04/17 11:16:46;;;;;;;10.75;6.57;;;;;;;;;;4891150;29;20119;-83
2021/04/17 11:19:36;;;;;;;7.68;4.57;;;;;;;;;;4884125;29;21754;-83
2021/04/17 11:22:24;;;;;;;9.10;4.60;;;;;;;;;;4887838;29;20035;-82
2021/04/17 11:25:10;;;;;;;6.60;4.40;;;;;;;;;;4879888;29;20032;-83
2021/04/17 11:27:55;;;;;;;6.25;4.63;;;;;;;;;;4897230;29;20020;-84
2021/04/17 11:30:41;;;;;;;10.85;4.40;;;;;;;;;;4888614;29;20767;-83
2021/04/17 11:33:26;;;;;;;10.82;4.38;;;;;;;;;;4885731;29;20047;-83
2021/04/17 11:36:11;;;;;;;8.25;4.95;;;;;;;;;;4890286;29;20028;-83
2021/04/17 11:38:57;;;;;;;10.13;4.88;;;;;;;;;;4874481;29;20032;-83
2021/04/17 11:41:43;;;;;;;8.25;4.68;;;;;;;;;;4874980;29;20115;-84
2021/04/17 11:44:28;;;;;;;8.40;4.57;;;;;;;;;;4897519;29;20036;-83
2021/04/17 11:47:14;;;;;;;8.35;4.72;;;;;;;;;;4892766;29;20111;-83
2021/04/17 11:49:59;;;;;;;7.60;4.25;;;;;;;;;;4885300;29;20121;-82
2021/04/17 11:52:44;;;;;;;7.38;4.28;;;;;;;;;;4887775;29;20028;-82
2021/04/17 11:55:29;;;;;;;10.55;5.18;;;;;;;;;;4883512;29;20438;-82
2021/04/17 11:58:15;;;;;;;13.18;4.80;;;;;;;;;;4891968;29;20024;-82
2021/04/17 12:01:00;;;;;;;9.82;4.45;;;;;;;;;;4885839;29;20059;-82
2021/04/17 12:03:49;;;;;;;6.07;4.15;;;;;;;;;;4883378;29;20419;-82
2021/04/17 12:06:34;;;;;;;13.38;8.45;;;;;;;;;;4888224;29;20111;-84
2021/04/17 12:09:19;;;;;;;11.10;7.32;;;;;;;;;;4889718;29;20031;-84
2021/04/17 12:12:05;;;;;;;7.25;4.28;;;;;;;;;;4885064;29;20056;-83
2021/04/17 12:14:50;;;;;;;8.00;4.57;;;;;;;;;;4896273;29;20415;-83
2021/04/17 12:17:36;;;;;;;7.72;4.75;;;;;;;;;;4895417;29;20024;-84
2021/04/17 12:20:21;;;;;;;7.88;4.90;;;;;;;;;;4888110;29;20028;-83
2021/04/17 12:23:06;;;;;;;8.32;3.90;;;;;;;;;;4886453;29;20365;-83
2021/04/17 12:25:51;;;;;;;7.50;3.60;;;;;;;;;;4882142;29;20481;-83
2021/04/17 12:28:37;;;;;;;6.82;4.43;;;;;;;;;;4885259;29;20141;-83
2021/04/17 12:31:22;;;;;;;8.00;4.07;;;;;;;;;;4890176;29;20107;-83
2021/04/17 12:34:07;;;;;;;8.77;4.60;;;;;;;;;;4889563;29;20383;-84
2021/04/17 12:36:53;;;;;;;8.55;4.47;;;;;;;;;;4884559;29;20036;-83
2021/04/17 12:39:38;;;;;;;12.05;4.90;;;;;;;;;;4880633;29;20031;-83
2021/04/17 12:42:23;;;;;;;6.95;3.70;;;;;;;;;;4889710;29;20062;-83
2021/04/17 12:45:09;;;;;;;8.43;4.10;;;;;;;;;;4872416;29;20039;-82
2021/04/17 12:47:55;;;;;;;9.07;3.90;;;;;;;;;;4886293;29;20024;-84
2021/04/17 12:51:01;;;;;;;7.60;3.70;;;;;;;;;;4885362;29;20126;-83
2021/04/17 12:53:45;;;;;;;5.57;4.00;;;;;;;;;;4903415;29;20027;-82
2021/04/17 12:56:30;;;;;;;6.18;3.90;;;;;;;;;;4885335;29;20451;-81
2021/04/17 12:59:15;;;;;;;5.47;3.60;;;;;;;;;;4889162;29;20104;-82
2021/04/17 13:02:01;;;;;;;6.95;3.60;;;;;;;;;;4875833;29;20063;-81
2021/04/17 13:04:46;;;;;;;11.10;5.82;;;;;;;;;;4885834;29;20032;-83
2021/04/17 13:07:31;;;;;;;11.80;5.70;;;;;;;;;;4888944;29;20024;-83
2021/04/17 13:10:17;;;;;;;6.82;3.78;;;;;;;;;;4890003;29;20028;-84
2021/04/17 13:13:02;;;;;;;7.95;3.50;;;;;;;;;;4879494;29;20051;-83
2021/04/17 13:15:47;;;;;;;6.85;4.28;;;;;;;;;;4889705;29;20020;-82
2021/04/17 13:18:32;;;;;;;7.97;3.75;;;;;;;;;;4885755;29;20039;-81
2021/04/17 13:21:47;;;;;;;7.60;4.32;;;;;;;;;;4892023;29;20116;-87
2021/04/17 13:24:33;;;;;;;11.43;8.55;;;;;;;;;;4877014;29;20023;-82
2021/04/17 13:27:18;;;;;;;9.27;4.28;;;;;;;;;;4878397;29;20035;-83
2021/04/17 13:30:04;;;;;;;6.63;3.20;;;;;;;;;;4891724;29;20035;-82
2021/04/17 13:32:50;;;;;;;5.10;2.83;;;;;;;;;;4893318;29;20108;-82
2021/04/17 13:35:35;;;;;;;5.57;3.35;;;;;;;;;;4887147;29;20606;-82
2021/04/17 13:38:20;;;;;;;8.25;3.22;;;;;;;;;;4888503;29;20048;-82
2021/04/17 13:41:06;;;;;;;6.65;3.47;;;;;;;;;;4888685;29;20040;-82
2021/04/17 13:43:51;;;;;;;6.18;3.25;;;;;;;;;;4883613;29;20107;-82
2021/04/17 13:46:40;;;;;;;7.53;3.47;;;;;;;;;;4870262;29;20036;-82
2021/04/17 13:49:25;;;;;;;8.97;3.53;;;;;;;;;;4898996;29;20031;-83
2021/04/17 13:52:10;;;;;;;8.35;3.17;;;;;;;;;;4890271;29;20253;-82
2021/04/17 13:54:56;;;;;;;7.25;3.00;;;;;;;;;;4886107;29;20060;-82
2021/04/17 13:57:41;;;;;;;4.45;2.90;;;;;;;;;;4878263;29;20110;-86
2021/04/17 14:00:26;;;;;;;7.55;3.15;;;;;;;;;;4888639;29;20498;-82
2021/04/17 14:03:11;;;;;;;6.40;3.33;;;;;;;;;;4888196;29;20028;-81
2021/04/17 14:05:57;;;;;;;7.65;3.20;;;;;;;;;;4885455;29;20119;-82
2021/04/17 14:08:42;;;;;;;34.83;24.27;;;;;;;;;;4887823;29;20024;-82
2021/04/17 14:11:27;;;;;;;12.38;7.38;;;;;;;;;;4882641;29;20163;-84
2021/04/17 14:14:13;;;;;;;11.00;3.53;;;;;;;;;;4870224;29;20032;-82
2021/04/17 14:16:58;;;;;;;6.45;3.50;;;;;;;;;;4866876;29;20080;-83
2021/04/17 14:19:43;;;;;;;5.97;3.90;;;;;;;;;;4886045;29;20024;-83
2021/04/17 14:22:28;;;;;;;5.82;3.22;;;;;;;;;;4881324;29;20021;-81
2021/04/17 14:25:14;;;;;;;5.97;3.03;;;;;;;;;;4885447;29;20433;-81
2021/04/17 14:27:59;;;;;;;7.30;3.13;;;;;;;;;;4871185;29;20069;-81
2021/04/17 14:30:47;;;;;;;13.57;6.28;;;;;;;;;;4866269;29;20248;-82
2021/04/17 14:33:32;;;;;;;6.63;3.67;;;;;;;;;;4874893;29;20017;-83
2021/04/17 14:36:17;;;;;;;7.63;3.00;;;;;;;;;;4868733;29;20337;-81
2021/04/17 14:39:04;;;;;;;8.18;4.53;;;;;;;;;;4874682;29;20048;-81
2021/04/17 14:41:49;;;;;;;6.03;2.95;;;;;;;;;;4870863;29;20028;-80
2021/04/17 14:44:34;;;;;;;5.63;2.88;;;;;;;;;;4867249;29;20028;-82
2021/04/17 14:47:20;;;;;;;5.70;3.28;;;;;;;;;;4873352;29;20123;-83
2021/04/17 14:50:06;;;;;;;7.90;3.00;;;;;;;;;;4855705;29;20083;-83
2021/04/17 14:52:51;;;;;;;4.90;2.70;;;;;;;;;;4866050;29;20033;-83
2021/04/17 14:55:38;;;;;;;6.32;3.10;;;;;;;;;;4875072;29;20696;-84
2021/04/17 14:58:24;;;;;;;8.85;2.75;;;;;;;;;;4873579;29;20020;-83
2021/04/17 15:01:09;;;;;;;8.50;3.13;;;;;;;;;;4873697;29;20056;-82
2021/04/17 15:03:54;;;;;;;5.03;2.97;;;;;;;;;;4869457;29;20045;-83
2021/04/17 15:06:40;;;;;;;5.30;3.17;;;;;;;;;;4881007;29;20387;-83
2021/04/17 15:09:25;;;;;;;51.85;39.25;;;;;;;;;;4874467;29;20741;-84
2021/04/17 15:12:10;;;;;;;31.63;23.20;;;;;;;;;;4872062;29;20083;-84
2021/04/17 15:14:56;;;;;;;31.02;21.73;;;;;;;;;;4888383;29;20077;-85
2021/04/17 15:17:42;;;;;;;8.15;4.50;;;;;;;;;;4864394;29;20021;-86
2021/04/17 15:20:28;;;;;;;7.38;3.78;;;;;;;;;;4874526;29;20453;-85
2021/04/17 15:23:14;;;;;;;5.25;2.90;;;;;;;;;;4867842;29;20028;-88
2021/04/17 15:25:59;;;;;;;6.35;3.10;;;;;;;;;;4877810;29;20063;-86
2021/04/17 15:28:45;;;;;;;6.15;3.40;;;;;;;;;;4870122;29;20040;-85
2021/04/17 15:31:30;;;;;;;8.60;3.67;;;;;;;;;;4872718;29;20028;-87
2021/04/17 15:34:15;;;;;;;9.02;4.82;;;;;;;;;;4873912;29;20064;-88
2021/04/17 15:37:00;;;;;;;13.50;6.68;;;;;;;;;;4869439;29;20579;-88
2021/04/17 15:39:46;;;;;;;8.02;4.50;;;;;;;;;;4869299;29;20032;-83
2021/04/17 15:42:31;;;;;;;7.47;3.47;;;;;;;;;;4870565;29;20246;-86
2021/04/17 15:45:16;;;;;;;6.28;2.90;;;;;;;;;;4872183;29;20051;-85
2021/04/17 15:48:02;;;;;;;4.43;3.00;;;;;;;;;;4875787;29;20039;-84
2021/04/17 15:50:47;;;;;;;5.72;3.60;;;;;;;;;;4867889;29;20047;-85
2021/04/17 15:53:33;;;;;;;26.13;18.35;;;;;;;;;;4868112;29;20430;-85
2021/04/17 15:56:20;;;;;;;15.80;8.60;;;;;;;;;;4873370;29;20036;-84
2021/04/17 16:17:00;;;;;;;5.75;3.10;;;;;;;;;;4878714;29;20455;-85
2021/04/17 16:19:45;;;;;;;72.75;53.70;;;;;;;;;;4882992;29;20435;-83
2021/04/17 16:22:31;;;;;;;18.80;11.13;;;;;;;;;;4886644;29;20483;-82
2021/04/17 16:25:16;;;;;;;6.97;3.45;;;;;;;;;;4874882;29;20039;-85
2021/04/17 16:28:03;;;;;;;6.25;2.90;;;;;;;;;;4889914;29;20034;-82
2021/04/17 16:30:48;;;;;;;7.57;4.00;;;;;;;;;;4888051;29;20386;-83
2021/04/17 16:33:33;;;;;;;6.03;3.20;;;;;;;;;;4886017;29;20372;-81
2021/04/17 16:36:19;;;;;;;26.33;16.52;;;;;;;;;;4879206;29;20118;-83
2021/04/17 16:39:06;;;;;;;23.33;14.35;;;;;;;;;;4886074;29;20055;-82
2021/04/17 16:41:51;;;;;;;39.20;27.02;;;;;;;;;;4872563;29;20024;-82
2021/04/17 16:44:36;;;;;;;10.73;4.55;;;;;;;;;;4895103;29;20036;-81
2021/04/17 16:47:21;;;;;;;6.47;3.80;;;;;;;;;;4887464;29;20111;-81